sensor_id;sensor_type;location;lat;lon;timestamp;P1;durP1;ratioP1;P2;durP2;ratioP2
12350;SDS011;6240;51.538;7.696;2022-11-15T00:02:23;8.67;;;6.37;;
12350;SDS011;6240;51.538;7.696;2022-11-15T00:04:50;8.70;;;6.23;;
12350;SDS011;6240;51.538;7.696;2022-11-15T00:07:17;8.50;;;6.90;;
12350;SDS011;6240;51.538;7.696;2022-11-15T00:09:44;7.53;;;6.00;;
12350;SDS011;6240;51.538;7.696;2022-11-15T00:12:12;6.90;;;5.87;;
12350;SDS011;6240;51.538;7.696;2022-11-15T00:14:40;7.23;;;6.40;;
12350;SDS011;6240;51.538;7.696;2022-11-15T00:17:07;8.13;;;6.30;;
12350;SDS011;6240;51.538;7.696;2022-11-15T00:19:34;7.77;;;6.27;;
12350;SDS011;6240;51.538;7.696;2022-11-15T00:22:02;9.00;;;6.10;;
12350;SDS011;6240;51.538;7.696;2022-11-15T00:24:29;10.03;;;5.80;;
12350;SDS011;6240;51.538;7.696;2022-11-15T00:26:56;7.33;;;6.17;;
12350;SDS011;6240;51.538;7.696;2022-11-15T00:29:23;6.53;;;5.80;;
12350;SDS011;6240;51.538;7.696;2022-11-15T00:31:52;7.47;;;6.33;;
12350;SDS011;6240;51.538;7.696;2022-11-15T00:34:19;10.17;;;6.67;;
12350;SDS011;6240;51.538;7.696;2022-11-15T00:36:46;10.07;;;6.13;;
12350;SDS011;6240;51.538;7.696;2022-11-15T00:39:13;9.47;;;6.03;;
12350;SDS011;6240;51.538;7.696;2022-11-15T00:41:41;7.07;;;6.30;;
12350;SDS011;6240;51.538;7.696;2022-11-15T00:44:08;7.23;;;6.10;;
12350;SDS011;6240;51.538;7.696;2022-11-15T00:46:35;8.00;;;5.70;;
12350;SDS011;6240;51.538;7.696;2022-11-15T00:49:03;6.90;;;5.80;;
12350;SDS011;6240;51.538;7.696;2022-11-15T00:51:31;9.97;;;5.83;;
12350;SDS011;6240;51.538;7.696;2022-11-15T00:53:58;9.50;;;6.00;;
12350;SDS011;6240;51.538;7.696;2022-11-15T00:56:25;8.53;;;5.67;;
12350;SDS011;6240;51.538;7.696;2022-11-15T00:58:52;6.60;;;5.90;;
12350;SDS011;6240;51.538;7.696;2022-11-15T01:01:20;9.00;;;5.30;;
12350;SDS011;6240;51.538;7.696;2022-11-15T01:03:47;8.83;;;5.17;;
12350;SDS011;6240;51.538;7.696;2022-11-15T01:06:15;10.60;;;5.70;;
12350;SDS011;6240;51.538;7.696;2022-11-15T01:08:42;8.13;;;6.13;;
12350;SDS011;6240;51.538;7.696;2022-11-15T01:11:10;8.10;;;5.60;;
12350;SDS011;6240;51.538;7.696;2022-11-15T01:13:38;8.50;;;5.90;;
12350;SDS011;6240;51.538;7.696;2022-11-15T01:16:06;10.33;;;5.77;;
12350;SDS011;6240;51.538;7.696;2022-11-15T01:18:33;9.10;;;5.90;;
12350;SDS011;6240;51.538;7.696;2022-11-15T01:21:04;7.33;;;6.00;;
12350;SDS011;6240;51.538;7.696;2022-11-15T01:23:32;9.60;;;5.47;;
12350;SDS011;6240;51.538;7.696;2022-11-15T01:26:00;7.87;;;6.07;;
12350;SDS011;6240;51.538;7.696;2022-11-15T01:28:29;9.13;;;5.53;;
12350;SDS011;6240;51.538;7.696;2022-11-15T01:30:57;6.87;;;5.63;;
12350;SDS011;6240;51.538;7.696;2022-11-15T01:33:24;10.50;;;5.57;;
12350;SDS011;6240;51.538;7.696;2022-11-15T01:35:51;5.93;;;4.90;;
12350;SDS011;6240;51.538;7.696;2022-11-15T01:38:18;8.30;;;6.00;;
12350;SDS011;6240;51.538;7.696;2022-11-15T01:40:47;6.67;;;5.20;;
12350;SDS011;6240;51.538;7.696;2022-11-15T01:43:21;8.50;;;5.67;;
12350;SDS011;6240;51.538;7.696;2022-11-15T01:45:49;7.27;;;6.00;;
12350;SDS011;6240;51.538;7.696;2022-11-15T01:48:18;7.40;;;5.60;;
12350;SDS011;6240;51.538;7.696;2022-11-15T01:50:45;7.23;;;5.33;;
12350;SDS011;6240;51.538;7.696;2022-11-15T01:53:12;9.23;;;5.77;;
12350;SDS011;6240;51.538;7.696;2022-11-15T01:55:40;9.60;;;5.80;;
12350;SDS011;6240;51.538;7.696;2022-11-15T01:58:09;6.73;;;5.53;;
12350;SDS011;6240;51.538;7.696;2022-11-15T02:00:36;7.43;;;5.70;;
12350;SDS011;6240;51.538;7.696;2022-11-15T02:03:03;7.37;;;5.27;;
12350;SDS011;6240;51.538;7.696;2022-11-15T02:05:30;7.73;;;5.73;;
12350;SDS011;6240;51.538;7.696;2022-11-15T02:07:59;7.80;;;5.83;;
12350;SDS011;6240;51.538;7.696;2022-11-15T02:10:27;7.77;;;5.83;;
12350;SDS011;6240;51.538;7.696;2022-11-15T02:12:54;7.20;;;5.33;;
12350;SDS011;6240;51.538;7.696;2022-11-15T02:15:24;7.20;;;5.50;;
12350;SDS011;6240;51.538;7.696;2022-11-15T02:17:57;6.37;;;5.43;;
12350;SDS011;6240;51.538;7.696;2022-11-15T02:20:33;8.27;;;5.87;;
12350;SDS011;6240;51.538;7.696;2022-11-15T02:23:11;7.73;;;5.67;;
12350;SDS011;6240;51.538;7.696;2022-11-15T02:25:46;7.87;;;5.77;;
12350;SDS011;6240;51.538;7.696;2022-11-15T02:28:28;7.23;;;5.70;;
12350;SDS011;6240;51.538;7.696;2022-11-15T02:31:05;8.37;;;5.67;;
12350;SDS011;6240;51.538;7.696;2022-11-15T02:33:38;8.67;;;5.80;;
12350;SDS011;6240;51.538;7.696;2022-11-15T02:36:10;6.40;;;5.67;;
12350;SDS011;6240;51.538;7.696;2022-11-15T02:38:40;7.40;;;5.87;;
12350;SDS011;6240;51.538;7.696;2022-11-15T02:41:09;8.17;;;5.80;;
12350;SDS011;6240;51.538;7.696;2022-11-15T02:43:38;11.70;;;6.30;;
12350;SDS011;6240;51.538;7.696;2022-11-15T02:46:27;7.57;;;6.00;;
12350;SDS011;6240;51.538;7.696;2022-11-15T02:49:09;7.20;;;5.80;;
12350;SDS011;6240;51.538;7.696;2022-11-15T02:51:37;7.03;;;5.90;;
12350;SDS011;6240;51.538;7.696;2022-11-15T02:54:05;7.57;;;6.17;;
12350;SDS011;6240;51.538;7.696;2022-11-15T02:56:32;7.30;;;6.17;;
12350;SDS011;6240;51.538;7.696;2022-11-15T03:01:48;8.17;;;6.40;;
12350;SDS011;6240;51.538;7.696;2022-11-15T03:04:21;8.73;;;6.03;;
12350;SDS011;6240;51.538;7.696;2022-11-15T03:06:52;7.03;;;5.77;;
12350;SDS011;6240;51.538;7.696;2022-11-15T03:09:23;9.73;;;5.97;;
12350;SDS011;6240;51.538;7.696;2022-11-15T03:11:55;8.13;;;5.90;;
12350;SDS011;6240;51.538;7.696;2022-11-15T03:14:25;7.50;;;6.03;;
12350;SDS011;6240;51.538;7.696;2022-11-15T03:16:58;8.93;;;5.60;;
12350;SDS011;6240;51.538;7.696;2022-11-15T03:19:27;8.40;;;5.80;;
12350;SDS011;6240;51.538;7.696;2022-11-15T03:21:56;8.37;;;5.80;;
12350;SDS011;6240;51.538;7.696;2022-11-15T03:24:25;8.57;;;6.23;;
12350;SDS011;6240;51.538;7.696;2022-11-15T03:26:53;9.83;;;6.10;;
12350;SDS011;6240;51.538;7.696;2022-11-15T03:29:22;8.40;;;6.00;;
12350;SDS011;6240;51.538;7.696;2022-11-15T03:31:51;6.37;;;5.07;;
12350;SDS011;6240;51.538;7.696;2022-11-15T03:34:23;6.17;;;5.50;;
12350;SDS011;6240;51.538;7.696;2022-11-15T03:36:52;7.27;;;5.50;;
12350;SDS011;6240;51.538;7.696;2022-11-15T03:39:19;6.73;;;5.20;;
12350;SDS011;6240;51.538;7.696;2022-11-15T03:41:48;11.73;;;5.77;;
12350;SDS011;6240;51.538;7.696;2022-11-15T03:44:19;9.07;;;5.73;;
12350;SDS011;6240;51.538;7.696;2022-11-15T03:46:50;7.23;;;5.10;;
12350;SDS011;6240;51.538;7.696;2022-11-15T03:49:22;7.27;;;4.67;;
12350;SDS011;6240;51.538;7.696;2022-11-15T03:51:51;7.17;;;4.83;;
12350;SDS011;6240;51.538;7.696;2022-11-15T03:54:18;8.03;;;4.87;;
12350;SDS011;6240;51.538;7.696;2022-11-15T03:56:45;4.90;;;4.20;;
12350;SDS011;6240;51.538;7.696;2022-11-15T03:59:13;6.27;;;4.00;;
12350;SDS011;6240;51.538;7.696;2022-11-15T04:01:40;5.27;;;4.73;;
12350;SDS011;6240;51.538;7.696;2022-11-15T04:04:07;5.97;;;4.10;;
12350;SDS011;6240;51.538;7.696;2022-11-15T04:06:35;5.13;;;4.43;;
12350;SDS011;6240;51.538;7.696;2022-11-15T04:09:03;6.33;;;4.73;;
12350;SDS011;6240;51.538;7.696;2022-11-15T04:11:30;5.87;;;3.93;;
12350;SDS011;6240;51.538;7.696;2022-11-15T04:13:57;5.93;;;4.83;;
12350;SDS011;6240;51.538;7.696;2022-11-15T04:16:24;5.40;;;4.47;;
12350;SDS011;6240;51.538;7.696;2022-11-15T04:18:52;6.03;;;4.67;;
12350;SDS011;6240;51.538;7.696;2022-11-15T04:21:33;5.87;;;4.67;;
12350;SDS011;6240;51.538;7.696;2022-11-15T04:24:15;5.63;;;5.03;;
12350;SDS011;6240;51.538;7.696;2022-11-15T04:26:43;4.60;;;4.17;;
12350;SDS011;6240;51.538;7.696;2022-11-15T04:29:10;5.70;;;4.53;;
12350;SDS011;6240;51.538;7.696;2022-11-15T04:31:55;4.77;;;4.30;;
12350;SDS011;6240;51.538;7.696;2022-11-15T04:34:22;5.53;;;4.10;;
12350;SDS011;6240;51.538;7.696;2022-11-15T04:36:49;5.23;;;4.03;;
12350;SDS011;6240;51.538;7.696;2022-11-15T04:39:35;4.93;;;4.43;;
12350;SDS011;6240;51.538;7.696;2022-11-15T04:42:03;4.77;;;4.27;;
12350;SDS011;6240;51.538;7.696;2022-11-15T04:44:30;4.97;;;4.47;;
12350;SDS011;6240;51.538;7.696;2022-11-15T04:46:57;4.87;;;4.37;;
12350;SDS011;6240;51.538;7.696;2022-11-15T04:49:24;4.40;;;4.00;;
12350;SDS011;6240;51.538;7.696;2022-11-15T04:51:51;5.50;;;4.90;;
12350;SDS011;6240;51.538;7.696;2022-11-15T04:54:19;6.07;;;5.20;;
12350;SDS011;6240;51.538;7.696;2022-11-15T04:56:47;6.33;;;5.13;;
12350;SDS011;6240;51.538;7.696;2022-11-15T04:59:15;6.03;;;4.80;;
12350;SDS011;6240;51.538;7.696;2022-11-15T05:01:42;4.90;;;4.50;;
12350;SDS011;6240;51.538;7.696;2022-11-15T05:04:09;5.60;;;5.10;;
12350;SDS011;6240;51.538;7.696;2022-11-15T05:06:45;6.33;;;5.70;;
12350;SDS011;6240;51.538;7.696;2022-11-15T05:09:12;5.77;;;5.27;;
12350;SDS011;6240;51.538;7.696;2022-11-15T05:11:39;5.63;;;4.80;;
12350;SDS011;6240;51.538;7.696;2022-11-15T05:14:08;8.20;;;6.23;;
12350;SDS011;6240;51.538;7.696;2022-11-15T05:16:35;5.80;;;5.17;;
12350;SDS011;6240;51.538;7.696;2022-11-15T05:19:03;8.17;;;5.73;;
12350;SDS011;6240;51.538;7.696;2022-11-15T05:21:30;6.97;;;5.23;;
12350;SDS011;6240;51.538;7.696;2022-11-15T05:23:57;5.30;;;4.80;;
12350;SDS011;6240;51.538;7.696;2022-11-15T05:26:24;5.27;;;4.77;;
12350;SDS011;6240;51.538;7.696;2022-11-15T05:28:52;5.37;;;4.87;;
12350;SDS011;6240;51.538;7.696;2022-11-15T05:31:21;5.23;;;4.73;;
12350;SDS011;6240;51.538;7.696;2022-11-15T05:33:49;4.73;;;4.33;;
12350;SDS011;6240;51.538;7.696;2022-11-15T05:36:17;6.50;;;4.20;;
12350;SDS011;6240;51.538;7.696;2022-11-15T05:38:45;4.80;;;4.13;;
12350;SDS011;6240;51.538;7.696;2022-11-15T05:41:13;4.90;;;4.30;;
12350;SDS011;6240;51.538;7.696;2022-11-15T05:43:42;4.57;;;4.00;;
12350;SDS011;6240;51.538;7.696;2022-11-15T05:46:10;6.23;;;4.00;;
12350;SDS011;6240;51.538;7.696;2022-11-15T05:48:38;5.10;;;4.10;;
12350;SDS011;6240;51.538;7.696;2022-11-15T05:51:09;6.00;;;4.67;;
12350;SDS011;6240;51.538;7.696;2022-11-15T05:53:40;5.70;;;5.10;;
12350;SDS011;6240;51.538;7.696;2022-11-15T05:56:10;5.03;;;3.73;;
12350;SDS011;6240;51.538;7.696;2022-11-15T05:58:37;3.77;;;3.47;;
12350;SDS011;6240;51.538;7.696;2022-11-15T06:01:04;3.77;;;3.47;;
12350;SDS011;6240;51.538;7.696;2022-11-15T06:03:32;4.17;;;3.43;;
12350;SDS011;6240;51.538;7.696;2022-11-15T06:06:00;4.20;;;3.60;;
12350;SDS011;6240;51.538;7.696;2022-11-15T06:08:27;3.53;;;3.23;;
12350;SDS011;6240;51.538;7.696;2022-11-15T06:10:55;4.67;;;3.77;;
12350;SDS011;6240;51.538;7.696;2022-11-15T06:13:22;4.57;;;3.50;;
12350;SDS011;6240;51.538;7.696;2022-11-15T06:15:49;5.93;;;3.20;;
12350;SDS011;6240;51.538;7.696;2022-11-15T06:18:17;4.07;;;3.67;;
12350;SDS011;6240;51.538;7.696;2022-11-15T06:20:44;4.17;;;3.77;;
12350;SDS011;6240;51.538;7.696;2022-11-15T06:23:15;3.73;;;3.30;;
12350;SDS011;6240;51.538;7.696;2022-11-15T06:25:43;5.63;;;3.73;;
12350;SDS011;6240;51.538;7.696;2022-11-15T06:28:11;4.23;;;3.57;;
12350;SDS011;6240;51.538;7.696;2022-11-15T06:30:39;3.37;;;3.07;;
12350;SDS011;6240;51.538;7.696;2022-11-15T06:33:06;3.60;;;3.30;;
12350;SDS011;6240;51.538;7.696;2022-11-15T06:35:34;3.40;;;3.10;;
12350;SDS011;6240;51.538;7.696;2022-11-15T06:38:02;3.97;;;3.10;;
12350;SDS011;6240;51.538;7.696;2022-11-15T06:40:30;3.10;;;2.73;;
12350;SDS011;6240;51.538;7.696;2022-11-15T06:42:59;4.13;;;3.20;;
12350;SDS011;6240;51.538;7.696;2022-11-15T06:45:26;5.43;;;3.10;;
12350;SDS011;6240;51.538;7.696;2022-11-15T06:47:56;3.53;;;2.80;;
12350;SDS011;6240;51.538;7.696;2022-11-15T06:50:24;3.30;;;3.00;;
12350;SDS011;6240;51.538;7.696;2022-11-15T06:52:51;4.40;;;3.03;;
12350;SDS011;6240;51.538;7.696;2022-11-15T06:55:19;4.83;;;2.57;;
12350;SDS011;6240;51.538;7.696;2022-11-15T06:57:49;3.53;;;2.83;;
12350;SDS011;6240;51.538;7.696;2022-11-15T07:00:18;3.37;;;2.90;;
12350;SDS011;6240;51.538;7.696;2022-11-15T07:02:45;2.73;;;2.53;;
12350;SDS011;6240;51.538;7.696;2022-11-15T07:05:12;2.60;;;2.40;;
12350;SDS011;6240;51.538;7.696;2022-11-15T07:07:40;3.20;;;2.53;;
12350;SDS011;6240;51.538;7.696;2022-11-15T07:10:07;2.60;;;2.40;;
12350;SDS011;6240;51.538;7.696;2022-11-15T07:12:35;4.00;;;2.50;;
12350;SDS011;6240;51.538;7.696;2022-11-15T07:15:04;2.37;;;2.00;;
12350;SDS011;6240;51.538;7.696;2022-11-15T07:17:31;3.87;;;2.37;;
12350;SDS011;6240;51.538;7.696;2022-11-15T07:19:59;3.40;;;2.00;;
12350;SDS011;6240;51.538;7.696;2022-11-15T07:22:26;1.87;;;1.70;;
12350;SDS011;6240;51.538;7.696;2022-11-15T07:24:56;2.70;;;2.07;;
12350;SDS011;6240;51.538;7.696;2022-11-15T07:27:23;2.23;;;1.70;;
12350;SDS011;6240;51.538;7.696;2022-11-15T07:29:55;1.63;;;1.50;;
12350;SDS011;6240;51.538;7.696;2022-11-15T07:32:28;2.47;;;1.70;;
12350;SDS011;6240;51.538;7.696;2022-11-15T07:34:57;2.20;;;2.00;;
12350;SDS011;6240;51.538;7.696;2022-11-15T07:37:25;4.90;;;2.10;;
12350;SDS011;6240;51.538;7.696;2022-11-15T07:39:53;2.50;;;1.83;;
12350;SDS011;6240;51.538;7.696;2022-11-15T07:42:20;2.60;;;2.00;;
12350;SDS011;6240;51.538;7.696;2022-11-15T07:45:06;1.90;;;1.77;;
12350;SDS011;6240;51.538;7.696;2022-11-15T07:47:47;3.03;;;1.80;;
12350;SDS011;6240;51.538;7.696;2022-11-15T07:50:17;3.53;;;1.80;;
12350;SDS011;6240;51.538;7.696;2022-11-15T07:52:45;1.70;;;1.60;;
12350;SDS011;6240;51.538;7.696;2022-11-15T07:55:13;1.97;;;1.83;;
12350;SDS011;6240;51.538;7.696;2022-11-15T07:57:40;3.20;;;1.80;;
12350;SDS011;6240;51.538;7.696;2022-11-15T08:00:07;1.80;;;1.70;;
12350;SDS011;6240;51.538;7.696;2022-11-15T08:02:36;2.33;;;1.73;;
12350;SDS011;6240;51.538;7.696;2022-11-15T08:05:09;1.97;;;1.83;;
12350;SDS011;6240;51.538;7.696;2022-11-15T08:07:38;2.87;;;1.80;;
12350;SDS011;6240;51.538;7.696;2022-11-15T08:10:07;2.73;;;1.80;;
12350;SDS011;6240;51.538;7.696;2022-11-15T08:12:35;2.47;;;2.10;;
12350;SDS011;6240;51.538;7.696;2022-11-15T08:15:06;3.43;;;1.60;;
12350;SDS011;6240;51.538;7.696;2022-11-15T08:17:38;2.63;;;1.60;;
12350;SDS011;6240;51.538;7.696;2022-11-15T08:20:10;1.60;;;1.50;;
12350;SDS011;6240;51.538;7.696;2022-11-15T08:22:37;1.93;;;1.70;;
12350;SDS011;6240;51.538;7.696;2022-11-15T08:25:05;1.60;;;1.50;;
12350;SDS011;6240;51.538;7.696;2022-11-15T08:27:32;2.97;;;1.90;;
12350;SDS011;6240;51.538;7.696;2022-11-15T08:29:59;1.87;;;1.60;;
12350;SDS011;6240;51.538;7.696;2022-11-15T08:32:27;1.50;;;1.40;;
12350;SDS011;6240;51.538;7.696;2022-11-15T08:34:54;2.43;;;1.50;;
12350;SDS011;6240;51.538;7.696;2022-11-15T08:37:23;1.87;;;1.70;;
12350;SDS011;6240;51.538;7.696;2022-11-15T08:39:50;1.70;;;1.60;;
12350;SDS011;6240;51.538;7.696;2022-11-15T08:42:17;3.73;;;1.53;;
12350;SDS011;6240;51.538;7.696;2022-11-15T08:44:45;1.40;;;1.30;;
12350;SDS011;6240;51.538;7.696;2022-11-15T08:47:12;3.43;;;1.47;;
12350;SDS011;6240;51.538;7.696;2022-11-15T08:49:39;1.67;;;1.40;;
12350;SDS011;6240;51.538;7.696;2022-11-15T08:52:06;1.93;;;1.30;;
12350;SDS011;6240;51.538;7.696;2022-11-15T08:54:35;2.00;;;1.33;;
12350;SDS011;6240;51.538;7.696;2022-11-15T08:57:03;1.97;;;1.50;;
12350;SDS011;6240;51.538;7.696;2022-11-15T08:59:30;1.83;;;1.40;;
12350;SDS011;6240;51.538;7.696;2022-11-15T09:01:57;2.37;;;1.30;;
12350;SDS011;6240;51.538;7.696;2022-11-15T09:04:24;1.60;;;1.50;;
12350;SDS011;6240;51.538;7.696;2022-11-15T09:06:51;2.43;;;1.17;;
12350;SDS011;6240;51.538;7.696;2022-11-15T09:09:19;1.77;;;1.20;;
12350;SDS011;6240;51.538;7.696;2022-11-15T09:11:47;1.53;;;1.40;;
12350;SDS011;6240;51.538;7.696;2022-11-15T09:14:15;2.60;;;1.60;;
12350;SDS011;6240;51.538;7.696;2022-11-15T09:16:43;1.80;;;1.50;;
12350;SDS011;6240;51.538;7.696;2022-11-15T09:19:10;1.60;;;1.30;;
12350;SDS011;6240;51.538;7.696;2022-11-15T09:21:39;2.70;;;1.20;;
12350;SDS011;6240;51.538;7.696;2022-11-15T09:24:07;2.20;;;1.20;;
12350;SDS011;6240;51.538;7.696;2022-11-15T09:26:34;2.93;;;1.30;;
12350;SDS011;6240;51.538;7.696;2022-11-15T09:29:03;2.10;;;1.40;;
12350;SDS011;6240;51.538;7.696;2022-11-15T09:31:30;1.00;;;1.00;;
12350;SDS011;6240;51.538;7.696;2022-11-15T09:33:57;1.90;;;1.30;;
12350;SDS011;6240;51.538;7.696;2022-11-15T09:36:24;2.50;;;1.33;;
12350;SDS011;6240;51.538;7.696;2022-11-15T09:38:52;1.90;;;1.43;;
12350;SDS011;6240;51.538;7.696;2022-11-15T09:44:06;1.93;;;1.20;;
12350;SDS011;6240;51.538;7.696;2022-11-15T09:46:37;2.90;;;1.47;;
12350;SDS011;6240;51.538;7.696;2022-11-15T09:49:06;2.73;;;1.13;;
12350;SDS011;6240;51.538;7.696;2022-11-15T09:51:37;2.17;;;1.20;;
12350;SDS011;6240;51.538;7.696;2022-11-15T09:54:13;1.60;;;1.07;;
12350;SDS011;6240;51.538;7.696;2022-11-15T09:56:45;1.87;;;1.30;;
12350;SDS011;6240;51.538;7.696;2022-11-15T09:59:19;1.90;;;1.10;;
12350;SDS011;6240;51.538;7.696;2022-11-15T10:01:50;2.37;;;1.20;;
12350;SDS011;6240;51.538;7.696;2022-11-15T10:04:20;1.17;;;1.07;;
12350;SDS011;6240;51.538;7.696;2022-11-15T10:06:49;1.63;;;1.30;;
12350;SDS011;6240;51.538;7.696;2022-11-15T10:09:19;1.30;;;1.13;;
12350;SDS011;6240;51.538;7.696;2022-11-15T10:11:47;1.47;;;1.10;;
12350;SDS011;6240;51.538;7.696;2022-11-15T10:14:15;1.67;;;1.13;;
12350;SDS011;6240;51.538;7.696;2022-11-15T10:16:58;1.57;;;1.10;;
12350;SDS011;6240;51.538;7.696;2022-11-15T10:19:28;1.40;;;1.23;;
12350;SDS011;6240;51.538;7.696;2022-11-15T10:22:00;1.83;;;1.50;;
12350;SDS011;6240;51.538;7.696;2022-11-15T10:24:34;2.00;;;1.77;;
12350;SDS011;6240;51.538;7.696;2022-11-15T10:27:04;1.30;;;1.20;;
12350;SDS011;6240;51.538;7.696;2022-11-15T10:29:34;1.67;;;1.37;;
12350;SDS011;6240;51.538;7.696;2022-11-15T10:32:04;2.00;;;1.60;;
12350;SDS011;6240;51.538;7.696;2022-11-15T10:34:37;1.87;;;1.63;;
12350;SDS011;6240;51.538;7.696;2022-11-15T10:37:07;2.03;;;1.73;;
12350;SDS011;6240;51.538;7.696;2022-11-15T10:39:34;2.30;;;1.77;;
12350;SDS011;6240;51.538;7.696;2022-11-15T10:42:15;2.57;;;1.80;;
12350;SDS011;6240;51.538;7.696;2022-11-15T10:44:45;1.57;;;1.37;;
12350;SDS011;6240;51.538;7.696;2022-11-15T10:47:23;1.50;;;1.10;;
12350;SDS011;6240;51.538;7.696;2022-11-15T10:49:58;1.83;;;1.10;;
12350;SDS011;6240;51.538;7.696;2022-11-15T10:52:26;1.40;;;1.30;;
12350;SDS011;6240;51.538;7.696;2022-11-15T10:54:55;2.50;;;1.43;;
12350;SDS011;6240;51.538;7.696;2022-11-15T10:57:24;2.17;;;1.20;;
12350;SDS011;6240;51.538;7.696;2022-11-15T10:59:53;1.37;;;1.10;;
12350;SDS011;6240;51.538;7.696;2022-11-15T11:02:29;1.97;;;1.20;;
12350;SDS011;6240;51.538;7.696;2022-11-15T11:04:57;1.13;;;1.03;;
12350;SDS011;6240;51.538;7.696;2022-11-15T11:07:26;1.80;;;1.40;;
12350;SDS011;6240;51.538;7.696;2022-11-15T11:09:57;1.27;;;1.17;;
12350;SDS011;6240;51.538;7.696;2022-11-15T11:12:27;1.93;;;1.10;;
12350;SDS011;6240;51.538;7.696;2022-11-15T11:14:55;2.97;;;1.30;;
12350;SDS011;6240;51.538;7.696;2022-11-15T11:17:26;1.50;;;1.20;;
12350;SDS011;6240;51.538;7.696;2022-11-15T11:20:02;1.43;;;1.10;;
12350;SDS011;6240;51.538;7.696;2022-11-15T11:22:37;2.20;;;1.30;;
12350;SDS011;6240;51.538;7.696;2022-11-15T11:25:12;1.20;;;1.10;;
12350;SDS011;6240;51.538;7.696;2022-11-15T11:27:43;1.30;;;1.20;;
12350;SDS011;6240;51.538;7.696;2022-11-15T11:30:17;1.57;;;1.00;;
12350;SDS011;6240;51.538;7.696;2022-11-15T11:32:50;1.53;;;1.20;;
12350;SDS011;6240;51.538;7.696;2022-11-15T11:35:24;3.90;;;1.40;;
12350;SDS011;6240;51.538;7.696;2022-11-15T11:37:57;1.93;;;1.17;;
12350;SDS011;6240;51.538;7.696;2022-11-15T11:40:28;1.17;;;1.00;;
12350;SDS011;6240;51.538;7.696;2022-11-15T11:42:58;2.63;;;1.20;;
12350;SDS011;6240;51.538;7.696;2022-11-15T11:45:50;1.20;;;1.10;;
12350;SDS011;6240;51.538;7.696;2022-11-15T11:48:26;1.23;;;1.13;;
12350;SDS011;6240;51.538;7.696;2022-11-15T11:51:07;3.13;;;1.37;;
12350;SDS011;6240;51.538;7.696;2022-11-15T11:53:39;1.73;;;1.10;;
12350;SDS011;6240;51.538;7.696;2022-11-15T11:56:11;1.13;;;1.03;;
12350;SDS011;6240;51.538;7.696;2022-11-15T11:58:41;2.60;;;0.90;;
12350;SDS011;6240;51.538;7.696;2022-11-15T12:01:12;1.33;;;1.23;;
12350;SDS011;6240;51.538;7.696;2022-11-15T12:03:46;1.93;;;1.20;;
12350;SDS011;6240;51.538;7.696;2022-11-15T12:06:19;3.37;;;1.10;;
12350;SDS011;6240;51.538;7.696;2022-11-15T12:08:50;1.13;;;1.00;;
12350;SDS011;6240;51.538;7.696;2022-11-15T12:11:20;1.20;;;1.10;;
12350;SDS011;6240;51.538;7.696;2022-11-15T12:13:49;2.03;;;1.20;;
12350;SDS011;6240;51.538;7.696;2022-11-15T12:16:18;1.53;;;1.03;;
12350;SDS011;6240;51.538;7.696;2022-11-15T12:18:48;2.33;;;1.73;;
12350;SDS011;6240;51.538;7.696;2022-11-15T12:21:16;1.87;;;1.20;;
12350;SDS011;6240;51.538;7.696;2022-11-15T12:23:48;2.03;;;1.13;;
12350;SDS011;6240;51.538;7.696;2022-11-15T12:26:22;1.30;;;1.00;;
12350;SDS011;6240;51.538;7.696;2022-11-15T12:28:52;2.27;;;0.97;;
12350;SDS011;6240;51.538;7.696;2022-11-15T12:31:26;1.93;;;1.20;;
12350;SDS011;6240;51.538;7.696;2022-11-15T12:34:01;1.57;;;1.10;;
12350;SDS011;6240;51.538;7.696;2022-11-15T12:36:30;1.33;;;0.90;;
12350;SDS011;6240;51.538;7.696;2022-11-15T12:39:00;1.10;;;1.07;;
12350;SDS011;6240;51.538;7.696;2022-11-15T12:41:29;1.20;;;1.10;;
12350;SDS011;6240;51.538;7.696;2022-11-15T12:43:56;2.77;;;1.03;;
12350;SDS011;6240;51.538;7.696;2022-11-15T12:49:08;0.90;;;0.90;;
12350;SDS011;6240;51.538;7.696;2022-11-15T13:05:53;1.73;;;1.17;;
12350;SDS011;6240;51.538;7.696;2022-11-15T13:08:34;3.17;;;1.20;;
12350;SDS011;6240;51.538;7.696;2022-11-15T13:13:44;2.10;;;1.00;;
12350;SDS011;6240;51.538;7.696;2022-11-15T13:16:12;0.97;;;0.97;;
12350;SDS011;6240;51.538;7.696;2022-11-15T13:18:52;1.50;;;0.90;;
12350;SDS011;6240;51.538;7.696;2022-11-15T13:21:22;4.20;;;1.13;;
12350;SDS011;6240;51.538;7.696;2022-11-15T13:24:12;2.27;;;1.00;;
12350;SDS011;6240;51.538;7.696;2022-11-15T13:26:39;1.57;;;0.80;;
12350;SDS011;6240;51.538;7.696;2022-11-15T13:29:17;1.10;;;1.00;;
12350;SDS011;6240;51.538;7.696;2022-11-15T13:31:45;1.30;;;1.03;;
12350;SDS011;6240;51.538;7.696;2022-11-15T13:34:31;1.50;;;1.23;;
12350;SDS011;6240;51.538;7.696;2022-11-15T13:37:02;1.20;;;1.10;;
12350;SDS011;6240;51.538;7.696;2022-11-15T13:39:33;1.50;;;1.17;;
12350;SDS011;6240;51.538;7.696;2022-11-15T13:42:02;2.13;;;0.97;;
12350;SDS011;6240;51.538;7.696;2022-11-15T13:44:30;1.33;;;1.00;;
12350;SDS011;6240;51.538;7.696;2022-11-15T13:47:01;1.90;;;1.30;;
12350;SDS011;6240;51.538;7.696;2022-11-15T13:49:29;2.77;;;1.00;;
12350;SDS011;6240;51.538;7.696;2022-11-15T13:51:58;3.00;;;1.10;;
12350;SDS011;6240;51.538;7.696;2022-11-15T13:54:29;1.80;;;0.97;;
12350;SDS011;6240;51.538;7.696;2022-11-15T13:56:58;1.03;;;0.90;;
12350;SDS011;6240;51.538;7.696;2022-11-15T13:59:28;3.40;;;1.40;;
12350;SDS011;6240;51.538;7.696;2022-11-15T14:01:58;1.77;;;1.10;;
12350;SDS011;6240;51.538;7.696;2022-11-15T14:04:26;1.90;;;1.00;;
12350;SDS011;6240;51.538;7.696;2022-11-15T14:06:55;1.63;;;1.27;;
12350;SDS011;6240;51.538;7.696;2022-11-15T14:09:32;2.43;;;1.00;;
12350;SDS011;6240;51.538;7.696;2022-11-15T14:12:00;2.00;;;1.17;;
12350;SDS011;6240;51.538;7.696;2022-11-15T14:14:28;2.23;;;1.10;;
12350;SDS011;6240;51.538;7.696;2022-11-15T14:16:56;3.90;;;1.23;;
12350;SDS011;6240;51.538;7.696;2022-11-15T14:19:35;2.83;;;1.40;;
12350;SDS011;6240;51.538;7.696;2022-11-15T14:22:13;4.67;;;1.30;;
12350;SDS011;6240;51.538;7.696;2022-11-15T14:24:43;2.10;;;1.10;;
12350;SDS011;6240;51.538;7.696;2022-11-15T14:27:20;2.17;;;1.07;;
12350;SDS011;6240;51.538;7.696;2022-11-15T14:29:48;3.23;;;1.07;;
12350;SDS011;6240;51.538;7.696;2022-11-15T14:32:17;2.63;;;1.50;;
12350;SDS011;6240;51.538;7.696;2022-11-15T14:34:44;2.90;;;1.30;;
12350;SDS011;6240;51.538;7.696;2022-11-15T14:37:24;1.10;;;0.93;;
12350;SDS011;6240;51.538;7.696;2022-11-15T14:39:53;1.97;;;1.27;;
12350;SDS011;6240;51.538;7.696;2022-11-15T14:42:20;3.27;;;1.23;;
12350;SDS011;6240;51.538;7.696;2022-11-15T14:44:48;2.10;;;1.20;;
12350;SDS011;6240;51.538;7.696;2022-11-15T14:47:15;2.50;;;1.17;;
12350;SDS011;6240;51.538;7.696;2022-11-15T14:49:42;2.10;;;1.20;;
12350;SDS011;6240;51.538;7.696;2022-11-15T14:52:17;2.50;;;1.50;;
12350;SDS011;6240;51.538;7.696;2022-11-15T14:54:47;3.80;;;1.20;;
12350;SDS011;6240;51.538;7.696;2022-11-15T14:57:20;3.53;;;1.20;;
12350;SDS011;6240;51.538;7.696;2022-11-15T14:59:50;2.07;;;1.10;;
12350;SDS011;6240;51.538;7.696;2022-11-15T15:02:18;3.67;;;1.30;;
12350;SDS011;6240;51.538;7.696;2022-11-15T15:04:46;1.63;;;1.47;;
12350;SDS011;6240;51.538;7.696;2022-11-15T15:07:13;2.80;;;1.30;;
12350;SDS011;6240;51.538;7.696;2022-11-15T15:09:41;4.60;;;1.50;;
12350;SDS011;6240;51.538;7.696;2022-11-15T15:12:13;4.60;;;1.60;;
12350;SDS011;6240;51.538;7.696;2022-11-15T15:14:46;4.43;;;1.47;;
12350;SDS011;6240;51.538;7.696;2022-11-15T15:17:15;1.50;;;1.40;;
12350;SDS011;6240;51.538;7.696;2022-11-15T15:19:47;2.27;;;1.60;;
12350;SDS011;6240;51.538;7.696;2022-11-15T15:22:18;2.07;;;1.33;;
12350;SDS011;6240;51.538;7.696;2022-11-15T15:24:46;3.53;;;1.30;;
12350;SDS011;6240;51.538;7.696;2022-11-15T15:27:14;3.10;;;1.90;;
12350;SDS011;6240;51.538;7.696;2022-11-15T15:29:48;2.47;;;1.50;;
12350;SDS011;6240;51.538;7.696;2022-11-15T15:32:16;2.50;;;1.60;;
12350;SDS011;6240;51.538;7.696;2022-11-15T15:34:43;2.33;;;1.70;;
12350;SDS011;6240;51.538;7.696;2022-11-15T15:37:19;1.60;;;1.50;;
12350;SDS011;6240;51.538;7.696;2022-11-15T15:39:49;5.37;;;2.00;;
12350;SDS011;6240;51.538;7.696;2022-11-15T15:42:16;4.07;;;1.93;;